Time;durP1;ratioP1;P1;durP2;ratioP2;P2;SDS_P1;SDS_P2;PMS_P1;PMS_P2;Temp;Humidity;BMP_temperature;BMP_pressure;BME280_temperature;BME280_humidity;BME280_pressure;Samples;Min_cycle;Max_cycle;Signal;HPM_P1;HPM_P2
2022/07/01 00:00:28;;;;;;;;;;;;;;;23.23;53.65;100078.03;2071271;28;19917;-58
2022/07/01 00:01:29;;;;;;;;;;;;;;;23.24;53.64;100074.25;2067991;28;19917;-57
2022/07/01 00:02:29;;;;;;;;;;;;;;;23.23;53.59;100067.03;2071238;28;20622;-58
2022/07/01 00:03:29;;;;;;;;;;;;;;;23.22;53.57;100068.91;2073157;28;19940;-58
2022/07/01 00:04:30;;;;;;;;;;;;;;;23.22;53.77;100070.81;2069055;28;19917;-58
2022/07/01 00:05:30;;;;;;;;;;;;;;;23.23;53.47;100072.53;2071663;28;19917;-58
2022/07/01 00:06:30;;;;;;;;;;;;;;;23.21;53.66;100069.97;2073003;28;19924;-57
2022/07/01 00:07:31;;;;;;;;;;;;;;;23.22;53.61;100070.81;2071616;28;20209;-57
2022/07/01 00:08:31;;;;;;;;;;;;;;;23.21;53.63;100067.22;2073232;28;20504;-58
2022/07/01 00:09:32;;;;;;;;;;;;;;;23.22;53.68;100073.56;2069379;28;19917;-58
2022/07/01 00:10:32;;;;;;;;;;;;;;;23.21;53.60;100069.97;2070049;28;19955;-58
2022/07/01 00:11:32;;;;;;;;;;;;;;;23.22;53.60;100070.81;2073264;28;19923;-57
2022/07/01 00:12:33;;;;;;;;;;;;;;;23.22;53.68;100077.16;2069131;28;19906;-58
2022/07/01 00:13:33;;;;;;;;;;;;;;;23.23;53.72;100072.53;2069758;28;20639;-58
2022/07/01 00:14:33;;;;;;;;;;;;;;;23.22;53.61;100065.31;2074548;28;19931;-57
2022/07/01 00:15:34;;;;;;;;;;;;;;;23.21;53.64;100071.88;2074173;28;20006;-60
2022/07/01 00:16:36;;;;;;;;;;;;;;;23.22;53.59;100070.81;2068986;28;19921;-59
2022/07/01 00:17:36;;;;;;;;;;;;;;;23.22;53.59;100073.56;2075251;28;19917;-58
2022/07/01 00:18:36;;;;;;;;;;;;;;;23.23;53.62;100072.53;2071727;28;19917;-58
2022/07/01 00:19:37;;;;;;;;;;;;;;;23.23;53.65;100078.03;2073597;28;19956;-56
2022/07/01 00:20:37;;;;;;;;;;;;;;;23.23;53.70;100072.53;2069070;28;19945;-58
2022/07/01 00:21:38;;;;;;;;;;;;;;;23.23;53.60;100072.53;2066582;28;19955;-58
2022/07/01 00:22:39;;;;;;;;;;;;;;;23.22;53.70;100070.81;2072683;28;20342;-59
2022/07/01 00:23:40;;;;;;;;;;;;;;;23.22;53.71;100062.56;2070592;28;20147;-58
2022/07/01 00:24:40;;;;;;;;;;;;;;;23.21;53.59;100066.38;2072761;28;19924;-59
2022/07/01 00:25:40;;;;;;;;;;;;;;;23.22;53.70;100065.31;2070166;28;19947;-58
2022/07/01 00:26:40;;;;;;;;;;;;;;;23.22;53.68;100068.06;2065307;28;20969;-58
2022/07/01 00:27:41;;;;;;;;;;;;;;;23.22;53.60;100068.06;2070117;28;19909;-58
2022/07/01 00:28:41;;;;;;;;;;;;;;;23.21;53.71;100071.88;2068848;28;20472;-58
2022/07/01 00:29:42;;;;;;;;;;;;;;;23.21;53.73;100071.88;2061946;28;20036;-60
2022/07/01 00:30:42;;;;;;;;;;;;;;;23.21;53.69;100074.63;2068361;28;19916;-57
2022/07/01 00:31:43;;;;;;;;;;;;;;;23.21;53.74;100080.09;2066303;28;19960;-58
2022/07/01 00:32:43;;;;;;;;;;;;;;;23.21;53.78;100080.09;2069167;28;19924;-57
2022/07/01 00:33:43;;;;;;;;;;;;;;;23.20;53.69;100079.25;2066606;28;19921;-58
2022/07/01 00:34:44;;;;;;;;;;;;;;;23.21;53.69;100085.59;2069046;28;20350;-57
2022/07/01 00:35:44;;;;;;;;;;;;;;;23.19;53.77;100082.19;2068589;28;19913;-57
2022/07/01 00:36:44;;;;;;;;;;;;;;;23.19;53.78;100082.19;2063530;28;19917;-58
2022/07/01 00:37:45;;;;;;;;;;;;;;;23.19;53.72;100084.94;2063546;28;20360;-58
2022/07/01 00:38:45;;;;;;;;;;;;;;;23.19;53.67;100080.28;2063377;28;20023;-58
2022/07/01 00:39:45;;;;;;;;;;;;;;;23.18;53.71;100075.81;2064456;28;19967;-58
2022/07/01 00:40:50;;;;;;;;;;;;;;;23.19;53.84;100082.19;2068126;28;20284;-59
2022/07/01 00:41:51;;;;;;;;;;;;;;;23.18;53.77;100078.56;2068789;28;19939;-58
2022/07/01 00:42:51;;;;;;;;;;;;;;;23.18;53.82;100080.47;2067194;28;19999;-58
2022/07/01 00:43:52;;;;;;;;;;;;;;;23.18;53.84;100077.72;2068692;28;19909;-58
2022/07/01 00:44:52;;;;;;;;;;;;;;;23.18;53.77;100077.72;2067371;28;19921;-58
2022/07/01 00:45:53;;;;;;;;;;;;;;;23.17;53.78;100078.75;2067860;28;19932;-58
2022/07/01 00:46:53;;;;;;;;;;;;;;;23.17;53.94;100081.50;2062597;28;19917;-58
2022/07/01 00:47:54;;;;;;;;;;;;;;;23.18;53.69;100080.47;2061825;28;19956;-58
2022/07/01 00:48:55;;;;;;;;;;;;;;;23.18;53.84;100077.72;2065084;28;20153;-59
2022/07/01 00:49:55;;;;;;;;;;;;;;;23.18;53.81;100075.81;2067266;28;19921;-58
2022/07/01 00:50:57;;;;;;;;;;;;;;;23.19;53.68;100082.19;2069372;28;19917;-58
2022/07/01 00:51:57;;;;;;;;;;;;;;;23.18;53.75;100072.22;2066889;28;19976;-58
2022/07/01 00:52:58;;;;;;;;;;;;;;;23.19;53.80;100082.19;2068321;28;19922;-56
2022/07/01 00:53:59;;;;;;;;;;;;;;;23.19;53.85;100076.69;2067974;28;19987;-58
2022/07/01 00:55:05;;;;;;;;;;;;;;;23.19;53.81;100080.28;2064792;28;19924;-58
2022/07/01 00:56:05;;;;;;;;;;;;;;;23.18;53.74;100080.47;2065104;28;20207;-59
2022/07/01 00:57:07;;;;;;;;;;;;;;;23.18;53.79;100074.97;2069471;28;19971;-58
2022/07/01 00:58:07;;;;;;;;;;;;;;;23.19;53.80;100082.19;2067198;28;19920;-58
2022/07/01 00:59:08;;;;;;;;;;;;;;;23.19;53.71;100082.19;2068567;28;20171;-59
2022/07/01 01:00:10;;;;;;;;;;;;;;;23.18;53.86;100085.97;2067401;28;19943;-58
2022/07/01 01:01:10;;;;;;;;;;;;;;;23.19;53.87;100079.44;2063718;28;19917;-59
2022/07/01 01:02:11;;;;;;;;;;;;;;;23.19;53.86;100082.19;2067628;28;20338;-58
2022/07/01 01:03:11;;;;;;;;;;;;;;;23.19;53.93;100076.69;2064910;28;19917;-58
2022/07/01 01:04:11;;;;;;;;;;;;;;;23.18;53.80;100080.47;2069117;28;19913;-59
2022/07/01 01:05:12;;;;;;;;;;;;;;;23.18;53.85;100075.81;2068134;28;19917;-58
2022/07/01 01:06:12;;;;;;;;;;;;;;;23.19;53.88;100082.19;2064429;28;19982;-58
2022/07/01 01:07:13;;;;;;;;;;;;;;;23.18;53.80;100088.72;2068127;28;19950;-58
2022/07/01 01:08:13;;;;;;;;;;;;;;;23.18;53.89;100083.22;2065989;28;20262;-59
2022/07/01 01:09:13;;;;;;;;;;;;;;;23.18;53.86;100085.97;2067213;28;19909;-58
2022/07/01 01:10:14;;;;;;;;;;;;;;;23.17;53.88;100084.25;2067831;28;20414;-58
2022/07/01 01:11:15;;;;;;;;;;;;;;;23.17;53.88;100078.75;2064275;28;20580;-58
2022/07/01 01:12:16;;;;;;;;;;;;;;;23.17;53.82;100085.09;2069011;28;19909;-58
2022/07/01 01:13:16;;;;;;;;;;;;;;;23.17;53.93;100084.25;2067428;28;20159;-58
2022/07/01 01:14:17;;;;;;;;;;;;;;;23.16;53.84;100079.78;2065626;28;20566;-59
2022/07/01 01:15:18;;;;;;;;;;;;;;;23.15;54.03;100076.19;2069431;28;19939;-58
2022/07/01 01:16:19;;;;;;;;;;;;;;;23.15;53.95;100076.19;2063893;28;20347;-58
2022/07/01 01:17:22;;;;;;;;;;;;;;;23.16;53.96;100077.03;2061893;28;19925;-58
2022/07/01 01:18:22;;;;;;;;;;;;;;;23.15;53.98;100081.69;2066939;28;20008;-58
2022/07/01 01:19:22;;;;;;;;;;;;;;;23.15;53.82;100087.19;2067915;28;19917;-58
2022/07/01 01:20:22;;;;;;;;;;;;;;;23.15;53.82;100086.31;2063745;28;19921;-58
2022/07/01 01:21:23;;;;;;;;;;;;;;;23.14;53.97;100084.59;2068977;28;20386;-58
2022/07/01 01:22:24;;;;;;;;;;;;;;;23.15;53.84;100080.81;2064050;28;19917;-58
2022/07/01 01:23:24;;;;;;;;;;;;;;;23.14;53.97;100082.69;2062244;28;20027;-58
2022/07/01 01:24:24;;;;;;;;;;;;;;;23.15;53.97;100075.31;2065705;28;19981;-60
2022/07/01 01:25:25;;;;;;;;;;;;;;;23.14;54.00;100079.94;2064385;28;20494;-58
2022/07/01 01:26:25;;;;;;;;;;;;;;;23.14;53.90;100073.59;2067408;28;20302;-59
2022/07/01 01:27:25;;;;;;;;;;;;;;;23.15;53.86;100081.69;2061973;28;19913;-58
2022/07/01 01:28:26;;;;;;;;;;;;;;;23.15;53.96;100070.69;2068143;28;19960;-59
2022/07/01 01:29:26;;;;;;;;;;;;;;;23.14;53.98;100068.97;2066427;28;19944;-58
2022/07/01 01:30:26;;;;;;;;;;;;;;;23.14;53.90;100068.09;2065948;28;20675;-58
2022/07/01 01:31:29;;;;;;;;;;;;;;;23.15;53.99;100075.31;2063359;28;19963;-58
2022/07/01 01:32:29;;;;;;;;;;;;;;;23.14;53.84;100079.09;2063712;28;20338;-58
2022/07/01 01:33:29;;;;;;;;;;;;;;;23.14;54.00;100074.44;2064864;28;20017;-58
2022/07/01 01:34:30;;;;;;;;;;;;;;;23.15;53.87;100080.81;2067798;28;19923;-58
2022/07/01 01:35:31;;;;;;;;;;;;;;;23.14;53.85;100081.84;2066421;28;20360;-58
2022/07/01 01:36:31;;;;;;;;;;;;;;;23.15;53.90;100080.81;2065027;28;20324;-58
2022/07/01 01:37:31;;;;;;;;;;;;;;;23.14;53.91;100079.09;2064785;28;19999;-58
2022/07/01 01:38:35;;;;;;;;;;;;;;;23.14;54.11;100077.19;2063737;28;19917;-58
2022/07/01 01:39:38;;;;;;;;;;;;;;;23.15;53.98;100078.06;2064520;28;20013;-58
2022/07/01 01:40:38;;;;;;;;;;;;;;;23.14;54.00;100079.94;2066663;28;20238;-58
2022/07/01 01:41:39;;;;;;;;;;;;;;;23.15;53.91;100080.81;2062868;28;19917;-58
2022/07/01 01:42:40;;;;;;;;;;;;;;;23.14;54.01;100082.69;2064840;28;20023;-58
2022/07/01 01:43:40;;;;;;;;;;;;;;;23.14;53.91;100074.44;2065171;28;19975;-58
2022/07/01 01:44:41;;;;;;;;;;;;;;;23.15;53.89;100080.81;2065073;28;20205;-58
2022/07/01 01:45:41;;;;;;;;;;;;;;;23.15;54.01;100080.81;2067192;28;19917;-58
2022/07/01 01:46:42;;;;;;;;;;;;;;;23.14;53.92;100090.09;2067782;28;19921;-58
2022/07/01 01:47:42;;;;;;;;;;;;;;;23.14;53.92;100087.34;2067365;28;19917;-57
2022/07/01 01:48:42;;;;;;;;;;;;;;;23.14;54.00;100082.69;2065124;28;19921;-58
2022/07/01 01:49:43;;;;;;;;;;;;;;;23.13;53.91;100081.00;2064349;28;19971;-57
2022/07/01 01:50:43;;;;;;;;;;;;;;;23.14;54.03;100084.59;2065952;28;20336;-58
2022/07/01 01:51:43;;;;;;;;;;;;;;;23.11;53.98;100081.16;2060994;28;20538;-58
2022/07/01 01:52:44;;;;;;;;;;;;;;;23.11;53.94;100081.16;2066071;28;20336;-58
2022/07/01 01:53:44;;;;;;;;;;;;;;;23.13;54.00;100080.13;2068083;28;19921;-58
2022/07/01 01:54:44;;;;;;;;;;;;;;;23.12;54.07;100073.78;2068137;28;19931;-58
2022/07/01 01:55:45;;;;;;;;;;;;;;;23.11;54.02;100078.41;2067800;28;20284;-58
2022/07/01 01:56:45;;;;;;;;;;;;;;;23.11;54.07;100083.06;2068734;28;20239;-58
2022/07/01 01:57:45;;;;;;;;;;;;;;;23.11;53.91;100075.66;2064426;28;19917;-58
2022/07/01 01:58:46;;;;;;;;;;;;;;;23.11;54.02;100077.56;2062380;28;19918;-58
2022/07/01 01:59:46;;;;;;;;;;;;;;;23.11;54.02;100083.91;2067502;28;20259;-58
2022/07/01 02:00:46;;;;;;;;;;;;;;;23.10;54.15;100079.47;2066405;28;19928;-58
2022/07/01 02:01:47;;;;;;;;;;;;;;;23.09;53.93;100077.72;2060397;28;19917;-59
2022/07/01 02:02:47;;;;;;;;;;;;;;;23.10;54.04;100073.97;2064070;28;19987;-59
2022/07/01 02:03:48;;;;;;;;;;;;;;;23.10;54.00;100079.47;2062397;28;19956;-59
2022/07/01 02:04:49;;;;;;;;;;;;;;;23.10;54.08;100073.97;2066752;28;19921;-59
2022/07/01 02:05:50;;;;;;;;;;;;;;;23.09;54.11;100074.97;2065917;28;20008;-59
2022/07/01 02:06:51;;;;;;;;;;;;;;;23.10;53.98;100068.47;2066991;28;20315;-58
2022/07/01 02:07:51;;;;;;;;;;;;;;;23.11;54.10;100070.16;2067778;28;19917;-59
2022/07/01 02:08:51;;;;;;;;;;;;;;;23.10;54.10;100067.59;2067970;28;19986;-59
2022/07/01 02:09:51;;;;;;;;;;;;;;;23.10;54.02;100068.47;2067230;28;19924;-58
2022/07/01 02:10:52;;;;;;;;;;;;;;;23.11;53.99;100063.81;2066361;28;19917;-58
2022/07/01 02:11:53;;;;;;;;;;;;;;;23.10;54.11;100065.72;2069827;28;19923;-59
2022/07/01 02:12:54;;;;;;;;;;;;;;;23.11;54.07;100061.91;2062466;28;19923;-59
2022/07/01 02:13:54;;;;;;;;;;;;;;;23.10;54.10;100062.97;2063102;28;20016;-59
2022/07/01 02:14:55;;;;;;;;;;;;;;;23.11;54.00;100070.16;2062032;28;19917;-59
2022/07/01 02:15:56;;;;;;;;;;;;;;;23.11;54.01;100070.16;2066625;28;19968;-59
2022/07/01 02:16:56;;;;;;;;;;;;;;;23.10;54.07;100068.47;2068658;28;20281;-58
2022/07/01 02:17:57;;;;;;;;;;;;;;;23.11;54.15;100064.66;2060562;28;20566;-58
2022/07/01 02:18:57;;;;;;;;;;;;;;;23.11;54.09;100066.56;2066535;28;20383;-59
2022/07/01 02:19:57;;;;;;;;;;;;;;;23.11;54.08;100072.91;2066917;28;19924;-59
2022/07/01 02:21:01;;;;;;;;;;;;;;;23.11;54.07;100075.66;2068332;28;19921;-58
2022/07/01 02:22:01;;;;;;;;;;;;;;;23.11;54.06;100059.16;2064225;28;19925;-58
2022/07/01 02:23:02;;;;;;;;;;;;;;;23.12;54.12;100065.53;2064857;28;19921;-58
2022/07/01 02:24:02;;;;;;;;;;;;;;;23.09;53.99;100061.22;2070393;28;20270;-59
2022/07/01 02:25:03;;;;;;;;;;;;;;;23.10;54.00;100054.72;2065893;28;20345;-59
2022/07/01 02:26:04;;;;;;;;;;;;;;;23.11;54.03;100061.91;2065715;28;20363;-59
2022/07/01 02:27:04;;;;;;;;;;;;;;;23.10;54.07;100059.34;2061707;28;19925;-59
2022/07/01 02:28:04;;;;;;;;;;;;;;;23.09;53.96;100055.72;2063192;28;19909;-59
2022/07/01 02:29:05;;;;;;;;;;;;;;;23.09;54.14;100052.97;2068342;28;19988;-59
2022/07/01 02:30:05;;;;;;;;;;;;;;;23.10;54.01;100053.84;2065951;28;19921;-58
2022/07/01 02:31:06;;;;;;;;;;;;;;;23.08;54.01;100047.69;2068153;28;20007;-58
2022/07/01 02:32:07;;;;;;;;;;;;;;;23.08;54.02;100054.03;2066081;28;20674;-58
2022/07/01 02:33:08;;;;;;;;;;;;;;;23.08;54.18;100054.03;2066786;28;20244;-59
2022/07/01 02:34:08;;;;;;;;;;;;;;;23.08;54.08;100048.53;2068833;28;19923;-58
2022/07/01 02:35:09;;;;;;;;;;;;;;;23.07;54.06;100049.56;2069988;28;19917;-58
2022/07/01 02:36:09;;;;;;;;;;;;;;;23.08;54.24;100053.19;2076715;28;19983;-57
2022/07/01 02:37:09;;;;;;;;;;;;;;;23.08;54.17;100058.69;2065129;28;19944;-58
2022/07/01 02:38:10;;;;;;;;;;;;;;;23.08;54.12;100058.69;2066373;28;19917;-57
2022/07/01 02:39:10;;;;;;;;;;;;;;;23.07;54.16;100055.06;2063311;28;20390;-58
2022/07/01 02:40:13;;;;;;;;;;;;;;;23.07;54.09;100057.81;2069335;28;19956;-58
2022/07/01 02:41:13;;;;;;;;;;;;;;;23.07;54.16;100056.94;2066741;28;20507;-58
2022/07/01 02:42:22;;;;;;;;;;;;;;;23.06;54.15;100050.59;2066652;28;19921;-59
2022/07/01 02:43:23;;;;;;;;;;;;;;;23.07;54.17;100057.81;2069168;28;19939;-58
2022/07/01 02:44:23;;;;;;;;;;;;;;;23.07;54.06;100052.31;2066945;28;19970;-58
2022/07/01 02:45:25;;;;;;;;;;;;;;;23.07;54.08;100046.81;2059777;28;19910;-59
2022/07/01 02:46:25;;;;;;;;;;;;;;;23.07;54.12;100052.31;2065856;28;19917;-58
2022/07/01 02:47:30;;;;;;;;;;;;;;;23.06;54.14;100047.84;2064788;28;19917;-58
2022/07/01 02:48:30;;;;;;;;;;;;;;;23.07;54.14;100041.31;2066000;28;20585;-58
2022/07/01 02:49:30;;;;;;;;;;;;;;;23.08;54.17;100051.28;2065396;28;19953;-58
2022/07/01 02:50:30;;;;;;;;;;;;;;;23.08;54.12;100058.69;2063074;28;20013;-58
2022/07/01 02:51:31;;;;;;;;;;;;;;;23.07;54.21;100052.31;2066553;28;20007;-58
2022/07/01 02:52:32;;;;;;;;;;;;;;;23.07;54.20;100052.31;2067201;28;19948;-58
2022/07/01 02:53:32;;;;;;;;;;;;;;;23.07;54.13;100052.31;2066600;28;19917;-58
2022/07/01 02:54:32;;;;;;;;;;;;;;;23.08;54.21;100054.03;2071289;28;19917;-58
2022/07/01 02:55:33;;;;;;;;;;;;;;;23.07;54.10;100055.06;2060172;28;19921;-58
2022/07/01 02:56:33;;;;;;;;;;;;;;;23.08;54.06;100055.94;2066925;28;19905;-58
2022/07/01 02:57:33;;;;;;;;;;;;;;;23.08;54.16;100054.03;2065920;28;19920;-58
2022/07/01 02:58:33;;;;;;;;;;;;;;;23.07;54.03;100038.56;2061689;28;19978;-58
2022/07/01 02:59:34;;;;;;;;;;;;;;;23.07;54.12;100046.81;2065870;28;20135;-59
2022/07/01 03:00:34;;;;;;;;;;;;;;;23.08;54.21;100044.94;2063810;28;19910;-58
2022/07/01 03:01:34;;;;;;;;;;;;;;;23.07;54.08;100046.81;2066733;28;19948;-58
2022/07/01 03:02:35;;;;;;;;;;;;;;;23.07;54.09;100046.81;2064579;28;19913;-58
2022/07/01 03:03:35;;;;;;;;;;;;;;;23.08;54.17;100050.44;2063511;28;20033;-58
2022/07/01 03:04:35;;;;;;;;;;;;;;;23.06;54.20;100045.09;2066188;28;19909;-58
2022/07/01 03:05:36;;;;;;;;;;;;;;;23.07;54.14;100046.81;2067647;28;19964;-58
2022/07/01 03:06:37;;;;;;;;;;;;;;;23.06;54.11;100049.75;2066640;28;20076;-58
2022/07/01 03:07:40;;;;;;;;;;;;;;;23.06;54.22;100050.59;2064928;28;19917;-59
2022/07/01 03:08:40;;;;;;;;;;;;;;;23.06;54.15;100047.00;2063937;28;19917;-59
2022/07/01 03:09:41;;;;;;;;;;;;;;;23.05;54.27;100054.41;2059437;28;19910;-58
2022/07/01 03:10:41;;;;;;;;;;;;;;;23.05;54.25;100046.16;2063726;28;19924;-58
2022/07/01 03:11:42;;;;;;;;;;;;;;;23.05;54.29;100048.00;2065294;28;20163;-58
2022/07/01 03:12:42;;;;;;;;;;;;;;;23.05;54.19;100048.91;2065334;28;19967;-58
2022/07/01 03:13:43;;;;;;;;;;;;;;;23.04;54.25;100052.66;2068159;28;20264;-58
2022/07/01 03:14:43;;;;;;;;;;;;;;;23.04;54.21;100052.66;2065874;28;20004;-58
2022/07/01 03:15:43;;;;;;;;;;;;;;;23.04;54.25;100052.66;2061070;28;19984;-58
2022/07/01 03:16:46;;;;;;;;;;;;;;;23.04;54.17;100052.66;2064466;28;19909;-58
2022/07/01 03:17:48;;;;;;;;;;;;;;;23.04;54.15;100052.66;2066985;28;19909;-58
2022/07/01 03:18:48;;;;;;;;;;;;;;;23.03;54.28;100048.22;2061318;28;20056;-58
2022/07/01 03:19:49;;;;;;;;;;;;;;;23.04;54.16;100041.66;2063517;28;19916;-58
2022/07/01 03:20:51;;;;;;;;;;;;;;;23.04;54.27;100052.66;2063537;28;19984;-58
2022/07/01 03:21:51;;;;;;;;;;;;;;;23.04;54.29;100052.66;2067572;28;20363;-58
2022/07/01 03:22:52;;;;;;;;;;;;;;;23.04;54.21;100049.06;2067217;28;19917;-59
2022/07/01 03:23:52;;;;;;;;;;;;;;;23.04;54.11;100052.66;2065350;28;20343;-58
2022/07/01 03:24:52;;;;;;;;;;;;;;;23.04;54.31;100046.31;2066354;28;19917;-59
2022/07/01 03:25:52;;;;;;;;;;;;;;;23.04;54.21;100047.16;2067706;28;19913;-58
2022/07/01 03:26:53;;;;;;;;;;;;;;;23.04;54.23;100060.91;2065481;28;19918;-58
2022/07/01 03:27:53;;;;;;;;;;;;;;;23.04;54.31;100058.16;2066558;28;19909;-58
2022/07/01 03:28:54;;;;;;;;;;;;;;;23.04;54.32;100055.41;2061381;28;19917;-58
2022/07/01 03:29:54;;;;;;;;;;;;;;;23.04;54.36;100051.81;2065055;28;19906;-58
2022/07/01 03:30:54;;;;;;;;;;;;;;;23.04;54.28;100058.16;2064993;28;19913;-58
2022/07/01 03:31:55;;;;;;;;;;;;;;;23.03;54.28;100050.97;2063623;28;19937;-58
2022/07/01 03:32:56;;;;;;;;;;;;;;;23.03;54.33;100050.97;2067845;28;19917;-60
2022/07/01 03:33:56;;;;;;;;;;;;;;;23.04;54.27;100049.91;2063484;28;20048;-58
2022/07/01 03:34:57;;;;;;;;;;;;;;;23.04;54.25;100052.66;2062362;28;19913;-58
2022/07/01 03:35:57;;;;;;;;;;;;;;;23.04;54.19;100057.31;2061133;28;20397;-58
2022/07/01 03:36:58;;;;;;;;;;;;;;;23.03;54.21;100055.59;2064579;28;20259;-59
2022/07/01 03:37:58;;;;;;;;;;;;;;;23.04;54.24;100051.81;2065051;28;20647;-58
2022/07/01 03:39:00;;;;;;;;;;;;;;;23.03;54.25;100050.97;2066136;28;20410;-58
2022/07/01 03:40:01;;;;;;;;;;;;;;;23.04;54.31;100051.81;2064653;28;19971;-59
2022/07/01 03:41:01;;;;;;;;;;;;;;;23.03;54.42;100056.47;2064343;28;19913;-58
2022/07/01 03:42:02;;;;;;;;;;;;;;;23.03;54.25;100056.47;2063783;28;19918;-58
2022/07/01 03:43:03;;;;;;;;;;;;;;;23.04;54.25;100057.31;2065172;28;19909;-58
2022/07/01 03:44:04;;;;;;;;;;;;;;;23.02;54.31;100057.47;2061652;28;19935;-58
2022/07/01 03:45:04;;;;;;;;;;;;;;;23.03;54.35;100061.97;2065239;28;19909;-58
2022/07/01 03:46:04;;;;;;;;;;;;;;;23.02;54.32;100068.47;2065902;28;20248;-58
2022/07/01 03:47:05;;;;;;;;;;;;;;;23.03;54.30;100066.59;2061499;28;19910;-58
2022/07/01 03:48:06;;;;;;;;;;;;;;;23.02;54.34;100071.22;2066315;28;20521;-58
2022/07/01 03:49:07;;;;;;;;;;;;;;;23.02;54.23;100065.72;2062152;28;20150;-59
2022/07/01 03:50:08;;;;;;;;;;;;;;;23.01;54.38;100069.53;2066947;28;19916;-58
2022/07/01 03:51:08;;;;;;;;;;;;;;;23.02;54.34;100071.22;2065884;28;19917;-59
2022/07/01 03:52:08;;;;;;;;;;;;;;;23.01;54.33;100072.25;2067944;28;19917;-58
2022/07/01 03:54:32;;;;;;;;;;;;;;;23.01;54.34;100057.66;2064908;28;19928;-58
2022/07/01 03:55:32;;;;;;;;;;;;;;;23.01;54.33;100064.03;2064375;28;19917;-58
2022/07/01 03:56:33;;;;;;;;;;;;;;;23.01;54.33;100068.66;2066507;28;19956;-58
2022/07/01 03:57:33;;;;;;;;;;;;;;;23.00;54.30;100072.44;2062625;28;20323;-57
2022/07/01 03:58:33;;;;;;;;;;;;;;;23.01;54.34;100069.53;2066481;28;19956;-58
2022/07/01 03:59:35;;;;;;;;;;;;;;;23.01;54.30;100065.91;2066413;28;20338;-58
2022/07/01 04:00:36;;;;;;;;;;;;;;;23.00;54.37;100067.78;2069238;28;20225;-58
2022/07/01 04:01:37;;;;;;;;;;;;;;;23.01;54.31;100071.41;2068712;28;20254;-59
2022/07/01 04:02:37;;;;;;;;;;;;;;;23.00;54.38;100073.28;2068921;28;19917;-58
2022/07/01 04:03:37;;;;;;;;;;;;;;;23.01;54.39;100065.91;2069628;28;19963;-58
2022/07/01 04:04:38;;;;;;;;;;;;;;;23.01;54.39;100069.53;2069751;28;20425;-58
2022/07/01 04:05:39;;;;;;;;;;;;;;;23.01;54.39;100068.66;2067551;28;20216;-58
2022/07/01 04:06:39;;;;;;;;;;;;;;;23.01;54.38;100076.91;2067937;28;20505;-58
2022/07/01 04:07:39;;;;;;;;;;;;;;;23.01;54.32;100068.66;2063795;28;19921;-58
2022/07/01 04:08:40;;;;;;;;;;;;;;;23.01;54.38;100075.00;2063010;28;20101;-58
2022/07/01 04:09:40;;;;;;;;;;;;;;;23.01;54.38;100069.53;2065351;28;20122;-59
2022/07/01 04:10:41;;;;;;;;;;;;;;;23.00;54.48;100078.78;2063575;28;20100;-58
2022/07/01 04:11:42;;;;;;;;;;;;;;;23.01;54.48;100071.41;2061716;28;20465;-58
2022/07/01 04:12:43;;;;;;;;;;;;;;;23.01;54.48;100074.16;2062741;28;20342;-58
2022/07/01 04:13:50;;;;;;;;;;;;;;;23.00;54.39;100073.28;2065185;28;19931;-58
2022/07/01 04:14:50;;;;;;;;;;;;;;;23.00;54.33;100078.78;2064604;28;19925;-59
2022/07/01 04:15:51;;;;;;;;;;;;;;;23.00;54.38;100070.53;2063510;28;19917;-59
2022/07/01 04:16:51;;;;;;;;;;;;;;;23.00;54.42;100062.28;2065539;28;19919;-58
2022/07/01 04:17:52;;;;;;;;;;;;;;;23.00;54.32;100067.78;2062830;28;20398;-59
2022/07/01 04:18:52;;;;;;;;;;;;;;;23.00;54.48;100058.69;2064961;28;20008;-58
2022/07/01 04:19:53;;;;;;;;;;;;;;;23.00;54.46;100054.03;2063643;28;20198;-58
2022/07/01 04:23:33;;;;;;;;;;;;;;;23.00;54.39;100066.94;2063285;28;20629;-59
2022/07/01 04:24:34;;;;;;;;;;;;;;;22.99;54.48;100066.09;2061884;28;20016;-58
2022/07/01 04:25:34;;;;;;;;;;;;;;;23.00;54.40;100067.78;2062548;28;19914;-58
2022/07/01 04:26:35;;;;;;;;;;;;;;;22.99;54.38;100060.59;2066303;28;19912;-58
2022/07/01 04:27:35;;;;;;;;;;;;;;;22.99;54.48;100065.22;2069899;28;20405;-58
2022/07/01 04:28:35;;;;;;;;;;;;;;;22.99;54.57;100066.09;2067649;28;19909;-58
2022/07/01 04:29:36;;;;;;;;;;;;;;;22.99;54.51;100071.56;2068862;28;20021;-58
2022/07/01 04:30:36;;;;;;;;;;;;;;;22.98;54.51;100064.38;2069458;28;20626;-58
2022/07/01 04:31:37;;;;;;;;;;;;;;;22.98;54.34;100067.13;2066565;28;20024;-58
2022/07/01 04:32:38;;;;;;;;;;;;;;;22.98;54.56;100072.63;2070916;28;19917;-59
2022/07/01 04:33:38;;;;;;;;;;;;;;;22.98;54.41;100075.38;2067832;28;20020;-59
2022/07/01 04:34:39;;;;;;;;;;;;;;;22.97;54.52;100073.59;2067851;28;19940;-59
2022/07/01 04:35:39;;;;;;;;;;;;;;;22.97;54.52;100073.59;2063628;28;19917;-59
2022/07/01 04:36:40;;;;;;;;;;;;;;;22.97;54.36;100079.09;2063342;28;19918;-60
2022/07/01 04:37:41;;;;;;;;;;;;;;;22.97;54.51;100073.59;2066602;28;19924;-59
2022/07/01 04:38:41;;;;;;;;;;;;;;;22.97;54.37;100073.59;2069002;28;19913;-59
2022/07/01 04:39:42;;;;;;;;;;;;;;;22.97;54.51;100073.59;2061042;28;20291;-59
2022/07/01 04:41:58;;;;;;;;;;;;;;;22.98;54.45;100074.50;2058515;28;20204;-59
2022/07/01 04:42:02;;;;;;;;;;;;;;;22.98;54.41;100074.50;2067760;28;19965;-58
2022/07/01 04:43:03;;;;;;;;;;;;;;;22.97;54.52;100073.59;2063971;28;20879;-58
2022/07/01 04:44:04;;;;;;;;;;;;;;;22.97;54.56;100072.75;2060683;28;20313;-58
2022/07/01 04:45:05;;;;;;;;;;;;;;;22.97;54.38;100073.59;2068434;28;19916;-58
2022/07/01 04:46:05;;;;;;;;;;;;;;;22.97;54.44;100073.59;2063894;28;20600;-59
2022/07/01 04:47:05;;;;;;;;;;;;;;;22.97;54.48;100073.59;2063533;28;20549;-58
2022/07/01 04:48:06;;;;;;;;;;;;;;;22.97;54.53;100073.59;2066352;28;19928;-58
2022/07/01 04:49:07;;;;;;;;;;;;;;;22.98;54.44;100071.75;2066423;28;19935;-58
2022/07/01 04:50:07;;;;;;;;;;;;;;;22.97;54.48;100070.88;2067241;28;19910;-59
2022/07/01 04:51:07;;;;;;;;;;;;;;;22.96;54.56;100066.41;2067368;28;19917;-59
2022/07/01 04:52:08;;;;;;;;;;;;;;;22.97;54.54;100073.59;2069658;28;19921;-58
2022/07/01 04:53:08;;;;;;;;;;;;;;;22.97;54.54;100068.13;2064373;28;19948;-59
2022/07/01 04:54:09;;;;;;;;;;;;;;;22.97;54.44;100078.25;2063054;28;19921;-59
2022/07/01 04:55:09;;;;;;;;;;;;;;;22.97;54.63;100068.13;2061894;28;20340;-59
2022/07/01 04:56:09;;;;;;;;;;;;;;;22.97;54.56;100068.13;2066833;28;20322;-58
2022/07/01 04:57:10;;;;;;;;;;;;;;;22.97;54.53;100070.88;2064650;28;19921;-59
2022/07/01 04:58:10;;;;;;;;;;;;;;;22.97;54.42;100067.25;2066155;28;20341;-58
2022/07/01 04:59:11;;;;;;;;;;;;;;;22.97;54.60;100067.25;2065638;28;19921;-59
2022/07/01 05:00:12;;;;;;;;;;;;;;;22.97;54.48;100073.59;2066010;28;20338;-58
2022/07/01 05:01:12;;;;;;;;;;;;;;;22.97;54.60;100068.13;2066573;28;20315;-59
2022/07/01 05:02:13;;;;;;;;;;;;;;;22.97;54.63;100067.25;2067866;28;20237;-59
2022/07/01 05:03:14;;;;;;;;;;;;;;;22.96;54.53;100071.06;2065723;28;20286;-58
2022/07/01 05:04:14;;;;;;;;;;;;;;;22.96;54.67;100077.41;2066899;28;19921;-58
2022/07/01 05:05:15;;;;;;;;;;;;;;;22.97;54.42;100068.13;2060947;28;19921;-59
2022/07/01 05:06:15;;;;;;;;;;;;;;;22.96;54.59;100068.31;2064323;28;20366;-59
2022/07/01 05:07:28;;;;;;;;;;;;;;;22.96;54.59;100071.91;2063319;28;19932;-59
2022/07/01 05:08:28;;;;;;;;;;;;;;;22.96;54.55;100071.06;2067123;28;20336;-59
2022/07/01 05:09:28;;;;;;;;;;;;;;;22.96;54.57;100076.56;2068676;28;19949;-58
2022/07/01 05:10:29;;;;;;;;;;;;;;;22.94;54.64;100076.72;2065191;28;20366;-58
2022/07/01 05:11:29;;;;;;;;;;;;;;;22.93;54.69;100077.75;2068485;28;20742;-59
2022/07/01 05:12:29;;;;;;;;;;;;;;;22.93;54.60;100075.00;2058749;28;19922;-59
2022/07/01 05:13:30;;;;;;;;;;;;;;;22.94;54.62;100071.22;2065416;28;19933;-58
2022/07/01 05:14:30;;;;;;;;;;;;;;;22.92;54.64;100070.53;2065503;28;19917;-58
2022/07/01 05:15:31;;;;;;;;;;;;;;;22.93;54.68;100077.75;2066601;28;19924;-59